This is the latest recevied weather packets stored in our database for station/object KP4CRN. If no packets are shown the sender has not sent any weather packets the latest 10 day(s).
| Time | Temp. | Humidity | Pressure | Rain* | Wind** | Luminosity | Snow |
|---|---|---|---|---|---|---|---|
| 1777916715 | 32.22° C | 63% | 1015.5 hPa | 0 mm | - | 116 W/m² | - |
| 1777916411 | 32.78° C | 62% | 1015.4 hPa | 0 mm | - | 176 W/m² | - |
| 1777916108 | 32.22° C | 61% | 1015.5 hPa | 0 mm | - | 108 W/m² | - |
| 1777915806 | 32.22° C | 62% | 1015.6 hPa | 0 mm | - | 96 W/m² | - |
| 1777915501 | 31.67° C | 63% | 1015.7 hPa | 0 mm | - | 70 W/m² | - |
| 1777915198 | 31.67° C | 64% | 1015.9 hPa | 0 mm | - | 97 W/m² | - |
| 1777914895 | 31.67° C | 63% | 1015.6 hPa | 0 mm | - | 198 W/m² | - |
| 1777914592 | 31.67° C | 64% | 1015.8 hPa | 0 mm | - | 161 W/m² | - |
| 1777914288 | 32.22° C | 61% | 1016 hPa | 0 mm | - | 178 W/m² | - |
| 1777913985 | 31.67° C | 63% | 1016 hPa | 0 mm | - | 150 W/m² | - |
| 1777913681 | 32.22° C | 61% | 1015.9 hPa | 0 mm | - | 657 W/m² | - |
| 1777913378 | 32.22° C | 61% | 1016 hPa | 0 mm | - | 192 W/m² | - |
| 1777913075 | 32.22° C | 61% | 1016.1 hPa | 0 mm | - | 167 W/m² | - |
| 1777912771 | 32.22° C | 60% | 1015.9 hPa | 0 mm | - | 921 W/m² | - |
| 1777912467 | 32.22° C | 60% | 1016.3 hPa | 0 mm | - | 790 W/m² | - |
| 1777912164 | 32.22° C | 59% | 1016.3 hPa | 0 mm | - | 856 W/m² | - |
| 1777911860 | 32.22° C | 59% | 1016.5 hPa | 0 mm | - | 837 W/m² | - |
| 1777911557 | 31.67° C | 60% | 1016.6 hPa | 0 mm | - | 858 W/m² | - |
| 1777911253 | 32.22° C | 59% | 1016.7 hPa | 0 mm | - | 844 W/m² | - |
| 1777910950 | 32.22° C | 60% | 1016.5 hPa | 0 mm | - | 884 W/m² | - |
| 1777910648 | 31.67° C | 60% | 1016.8 hPa | 0 mm | - | 847 W/m² | - |
| 1777910344 | 32.22° C | 60% | 1016.7 hPa | 0 mm | - | 837 W/m² | - |
| 1777910041 | 32.22° C | 60% | 1016.9 hPa | 0 mm | - | 792 W/m² | - |
| 1777909738 | 32.22° C | 60% | 1016.9 hPa | 0 mm | - | 826 W/m² | - |
| 1777909435 | 31.67° C | 60% | 1017 hPa | 0 mm | - | 709 W/m² | - |
* Rain latest hour (hover to see other rain measurements)
** Current wind speed in m/s (hover to see current wind gust speed)